Forside
METAR-TAF:

METAR-TAF

Lufthavne :

Grand Rapids/Itasca County Airport (Gordon Newstrom Field)

Grand Rapids, Minnesota, USA

Breddekreds: 47-13N, længdekreds: 093-31W, højde: 413 m

Aktuelle vejr

Denne rapport blev lavet for 50 minutter siden, kl. 23:56 UTC
Vind 12 kt fra nordvest med vindstød på up til 18 kt
Temperatur 14°C
Fugtighed 47%
Tryk 1013 hPa
Sigt: 16.1 km
Nogle få skyer i en højde af 5000 ft
Brudte skyer i en højde af 8500 ft

METAR: KGPZ 212356Z AUTO 31012G18KT 10SM FEW050 BKN085 14/03 A2991 RMK AO2 SLP136 60002 T01390028 10161 20122 56005

Tid: 19:46 (00:46 UTC)


TAF: fraværende

Vejrobservationer og prognoser fra mere end 4000 lufthavne (METAR og TAF).

De gule og røde prikker repræsenterer de meteorologiske stationer.

Flyt musen over at se navnet på stationen.

Så klik over at se vejr observationer og prognoser.

At skifte det kort: Klik på de grønne knapper med et sort kors for at zoome ind; på den grønne knap med en bindestreg for at zoome ud; eller på de grønne pile for tilstødende kort.


METAR-TAF: